createdAt,value
2023-05-25T00:01:05.007Z,95.90
2023-05-25T00:03:32.557Z,95.90
2023-05-25T00:06:02.802Z,95.90
2023-05-25T00:08:30.177Z,96.00
2023-05-25T00:10:57.292Z,96.10
2023-05-25T00:13:24.402Z,96.20
2023-05-25T00:15:51.525Z,96.30
2023-05-25T00:18:18.751Z,96.30
2023-05-25T00:20:47.578Z,96.40
2023-05-25T00:23:14.950Z,96.40
2023-05-25T00:25:42.580Z,96.40
2023-05-25T00:28:11.259Z,96.50
2023-05-25T00:30:38.830Z,96.60
2023-05-25T00:33:06.692Z,96.60
2023-05-25T00:35:33.809Z,96.60
2023-05-25T00:38:00.810Z,96.60
2023-05-25T00:40:27.930Z,96.60
2023-05-25T00:42:56.132Z,96.60
2023-05-25T00:45:23.483Z,96.60
2023-05-25T00:47:54.365Z,96.70
2023-05-25T00:50:47.559Z,96.70
2023-05-25T00:53:14.904Z,96.70
2023-05-25T00:55:44.836Z,96.60
2023-05-25T00:58:16.779Z,96.60
2023-05-25T01:00:46.768Z,96.60
2023-05-25T01:03:17.774Z,96.70
2023-05-25T01:05:48.743Z,96.70
2023-05-25T01:08:19.006Z,96.70
2023-05-25T01:10:52.344Z,96.70
2023-05-25T01:13:20.992Z,96.70
2023-05-25T01:15:49.908Z,96.70
2023-05-25T01:18:18.081Z,96.70
2023-05-25T01:21:13.284Z,96.70
2023-05-25T01:24:13.709Z,96.70
2023-05-25T01:26:47.296Z,96.70
2023-05-25T01:29:17.256Z,96.60
2023-05-25T01:31:47.437Z,96.60
2023-05-25T01:34:16.015Z,96.40
2023-05-25T01:36:43.074Z,96.40
2023-05-25T01:39:11.197Z,96.50
2023-05-25T01:41:38.611Z,96.70
2023-05-25T01:44:07.812Z,96.70
2023-05-25T01:46:41.552Z,96.70
2023-05-25T01:49:44.968Z,96.80
2023-05-25T01:52:32.442Z,96.90
2023-05-25T01:55:18.640Z,96.90
2023-05-25T01:57:50.722Z,96.90
2023-05-25T02:00:21.376Z,96.90
2023-05-25T02:02:50.668Z,97.00
2023-05-25T02:05:20.872Z,97.00
2023-05-25T02:07:47.906Z,97.20
2023-05-25T02:10:15.000Z,97.20
2023-05-25T02:12:42.784Z,97.30
2023-05-25T02:15:10.810Z,97.30
2023-05-25T02:17:38.602Z,97.30
2023-05-25T02:20:06.994Z,97.30
2023-05-25T02:22:34.144Z,97.20
2023-05-25T02:25:01.136Z,97.10
2023-05-25T02:27:29.985Z,97.00
2023-05-25T02:29:56.954Z,96.90
2023-05-25T02:32:26.089Z,96.90
2023-05-25T02:34:53.093Z,97.00
2023-05-25T02:37:20.129Z,97.10
2023-05-25T02:39:48.317Z,97.10
2023-05-25T02:42:15.428Z,97.10
2023-05-25T02:44:48.321Z,97.20
2023-05-25T02:47:16.514Z,97.30
2023-05-25T02:49:44.078Z,97.40
2023-05-25T02:52:11.536Z,97.40
2023-05-25T02:54:39.101Z,97.40
2023-05-25T02:57:08.800Z,97.50
2023-05-25T02:59:36.136Z,97.50
2023-05-25T03:02:03.804Z,97.50
2023-05-25T03:04:33.982Z,97.40
2023-05-25T03:07:01.668Z,97.40
2023-05-25T03:09:29.241Z,97.40
2023-05-25T03:11:56.448Z,97.30
2023-05-25T03:14:24.621Z,97.30
2023-05-25T03:16:56.976Z,97.20
2023-05-25T03:19:24.727Z,97.10
2023-05-25T03:21:51.652Z,97.10
2023-05-25T03:24:19.637Z,97.00
2023-05-25T03:26:46.795Z,97.20
2023-05-25T03:29:14.964Z,96.90
2023-05-25T03:31:41.959Z,96.90
2023-05-25T03:34:09.149Z,96.90
2023-05-25T03:36:39.092Z,96.90
2023-05-25T03:39:07.176Z,97.20
2023-05-25T03:41:34.206Z,97.00
2023-05-25T03:44:01.149Z,97.00
2023-05-25T03:46:28.173Z,97.00
2023-05-25T03:48:57.584Z,97.00
2023-05-25T03:51:24.519Z,96.90
2023-05-25T03:53:51.477Z,96.80
2023-05-25T03:56:18.452Z,96.90
2023-05-25T03:58:45.537Z,96.90
2023-05-25T04:01:13.536Z,97.00
2023-05-25T04:03:41.007Z,97.00
2023-05-25T04:06:08.799Z,97.00
2023-05-25T04:08:35.850Z,97.00
2023-05-25T04:11:04.912Z,96.90
2023-05-25T04:13:35.807Z,97.00
2023-05-25T04:16:03.429Z,97.10
2023-05-25T04:18:33.465Z,97.10
2023-05-25T04:21:01.291Z,97.10
2023-05-25T04:23:28.313Z,97.20
2023-05-25T04:25:55.478Z,97.10
2023-05-25T04:28:22.959Z,97.20
2023-05-25T04:30:57.243Z,97.20
2023-05-25T04:33:56.793Z,97.30
2023-05-25T04:36:29.986Z,97.30
2023-05-25T04:38:57.798Z,97.30
2023-05-25T04:41:25.962Z,97.30
2023-05-25T04:44:09.003Z,97.20
2023-05-25T04:46:40.719Z,97.20
2023-05-25T04:49:13.349Z,97.10
2023-05-25T04:51:40.542Z,97.00
2023-05-25T04:54:08.029Z,97.00
2023-05-25T04:56:35.093Z,96.90
2023-05-25T04:59:04.463Z,96.90
2023-05-25T05:01:34.411Z,96.90
2023-05-25T05:04:03.245Z,96.80
2023-05-25T05:06:30.221Z,96.70
2023-05-25T05:08:58.208Z,96.80
2023-05-25T05:11:25.163Z,96.70
2023-05-25T05:13:53.562Z,96.70
2023-05-25T05:16:20.822Z,96.70
2023-05-25T05:18:48.251Z,96.80
2023-05-25T05:21:15.391Z,96.80
2023-05-25T05:23:46.527Z,96.80
2023-05-25T05:26:15.316Z,96.90
2023-05-25T05:28:42.486Z,96.90
2023-05-25T05:31:09.896Z,97.00
2023-05-25T05:33:36.815Z,97.00
2023-05-25T05:36:04.910Z,97.10
2023-05-25T05:38:32.279Z,97.10
2023-05-25T05:40:59.425Z,97.10
2023-05-25T05:43:27.312Z,97.10
2023-05-25T05:45:54.704Z,97.20
2023-05-25T05:48:21.686Z,97.20
2023-05-25T05:50:49.740Z,97.10
2023-05-25T05:53:18.177Z,97.10
2023-05-25T05:55:45.979Z,96.90
2023-05-25T05:58:13.965Z,96.80
2023-05-25T06:00:41.070Z,96.60
2023-05-25T06:03:08.148Z,96.40
2023-05-25T06:05:35.274Z,96.40
2023-05-25T06:08:05.660Z,96.40
2023-05-25T06:10:34.753Z,96.50
2023-05-25T06:13:01.875Z,96.40
2023-05-25T06:15:28.855Z,96.40
2023-05-25T06:17:58.919Z,96.30
2023-05-25T06:20:26.562Z,96.40
2023-05-25T06:22:53.865Z,96.50
2023-05-25T06:25:21.085Z,96.60
2023-05-25T06:27:48.216Z,96.50
2023-05-25T06:30:15.267Z,96.40
2023-05-25T06:32:43.426Z,96.20
2023-05-25T06:35:14.731Z,95.90
2023-05-25T06:37:41.726Z,96.00
2023-05-25T06:40:10.439Z,95.90
2023-05-25T06:42:38.086Z,95.90
2023-05-25T06:45:06.531Z,95.90
2023-05-25T06:47:33.528Z,95.80
2023-05-25T06:50:00.979Z,95.90
2023-05-25T06:52:31.836Z,95.50
2023-05-25T06:54:58.837Z,95.00
2023-05-25T06:57:25.876Z,95.00
2023-05-25T06:59:52.834Z,95.30
2023-05-25T07:02:20.999Z,95.30
2023-05-25T07:04:48.105Z,95.30
2023-05-25T07:07:15.317Z,95.20
2023-05-25T07:09:42.274Z,94.90
2023-05-25T07:12:11.085Z,94.50
2023-05-25T07:14:38.437Z,94.30
2023-05-25T07:17:05.697Z,94.00
2023-05-25T07:19:32.925Z,93.10
2023-05-25T07:21:59.989Z,93.00
2023-05-25T07:24:26.843Z,92.40
2023-05-25T07:26:53.809Z,92.30
2023-05-25T07:29:21.079Z,92.30
2023-05-25T07:31:48.260Z,92.20
2023-05-25T07:34:15.617Z,92.30
2023-05-25T07:36:42.652Z,92.40
2023-05-25T07:39:11.335Z,92.60
2023-05-25T07:41:39.164Z,92.50
2023-05-25T07:44:06.163Z,92.50
2023-05-25T07:46:33.252Z,92.30
2023-05-25T07:49:00.144Z,92.20
2023-05-25T07:51:30.197Z,92.30
2023-05-25T07:53:58.243Z,92.30
2023-05-25T07:56:26.596Z,91.90
2023-05-25T07:58:53.610Z,91.50
2023-05-25T08:01:20.588Z,91.50
2023-05-25T08:03:50.088Z,91.60
2023-05-25T08:06:17.699Z,91.50
2023-05-25T08:08:45.068Z,91.40
2023-05-25T08:11:12.065Z,91.30
2023-05-25T08:13:39.456Z,91.20
2023-05-25T08:16:06.534Z,91.30
2023-05-25T08:18:33.513Z,90.90
2023-05-25T08:21:01.147Z,91.10
2023-05-25T08:23:28.186Z,90.90
2023-05-25T08:25:55.167Z,90.70
2023-05-25T08:28:22.867Z,90.40
2023-05-25T08:30:49.989Z,89.80
2023-05-25T08:33:17.063Z,90.00
2023-05-25T08:35:44.252Z,89.50
2023-05-25T08:38:11.463Z,88.10
2023-05-25T08:40:42.217Z,87.20
2023-05-25T08:43:09.389Z,87.50
2023-05-25T08:45:39.476Z,88.00
2023-05-25T08:48:26.888Z,87.60
2023-05-25T08:51:08.132Z,85.20
2023-05-25T08:53:39.046Z,85.20
2023-05-25T08:56:30.451Z,85.40
2023-05-25T08:59:13.913Z,85.90
2023-05-25T09:01:46.050Z,86.00
2023-05-25T09:04:14.761Z,86.00
2023-05-25T09:06:41.871Z,85.90
2023-05-25T09:09:09.563Z,85.90
2023-05-25T09:11:39.963Z,86.40
2023-05-25T09:14:11.544Z,87.10
2023-05-25T09:16:39.012Z,86.70
2023-05-25T09:19:06.049Z,86.10
2023-05-25T09:21:33.094Z,85.80
2023-05-25T09:24:01.601Z,83.90
2023-05-25T09:26:28.930Z,82.90
2023-05-25T09:28:55.973Z,81.90
2023-05-25T09:31:24.900Z,81.80
2023-05-25T09:33:55.594Z,82.10
2023-05-25T09:36:23.390Z,81.70
2023-05-25T09:38:53.953Z,81.50
2023-05-25T09:41:21.958Z,79.60
2023-05-25T09:44:02.235Z,80.50
2023-05-25T09:46:39.000Z,80.90
2023-05-25T09:49:08.978Z,81.10
2023-05-25T09:51:37.050Z,82.20
2023-05-25T09:54:08.739Z,84.50
2023-05-25T09:56:36.420Z,85.50
2023-05-25T09:59:03.814Z,85.50
2023-05-25T10:01:33.496Z,86.60
2023-05-25T10:04:04.624Z,88.00
2023-05-25T10:06:33.808Z,86.10
2023-05-25T10:09:01.820Z,85.30
2023-05-25T10:11:29.653Z,84.80
2023-05-25T10:13:59.102Z,84.50
2023-05-25T10:16:29.588Z,84.20
2023-05-25T10:19:03.845Z,84.80
2023-05-25T10:21:31.775Z,84.60
2023-05-25T10:24:06.300Z,82.60
2023-05-25T10:26:40.741Z,83.00
2023-05-25T10:29:09.412Z,80.70
2023-05-25T10:31:37.739Z,81.60
2023-05-25T10:34:04.949Z,80.50
2023-05-25T10:36:34.335Z,79.50
2023-05-25T10:39:03.297Z,78.50
2023-05-25T10:41:30.386Z,79.40
2023-05-25T10:43:57.482Z,77.30
2023-05-25T10:46:24.587Z,76.10
2023-05-25T10:48:52.990Z,77.30
2023-05-25T10:51:21.009Z,77.80
2023-05-25T10:53:59.905Z,78.40
2023-05-25T10:56:26.884Z,78.50
2023-05-25T10:58:53.874Z,78.40
2023-05-25T11:01:21.289Z,77.40
2023-05-25T11:04:15.727Z,78.40
2023-05-25T11:06:46.082Z,77.50
2023-05-25T11:09:26.909Z,77.20
2023-05-25T11:11:55.634Z,77.80
2023-05-25T11:14:32.169Z,78.10
2023-05-25T11:17:12.907Z,78.20
2023-05-25T11:19:52.897Z,78.40
2023-05-25T11:22:21.438Z,75.40
2023-05-25T11:24:49.013Z,75.90
2023-05-25T11:27:16.089Z,75.30
2023-05-25T11:29:43.693Z,76.10
2023-05-25T11:32:14.699Z,76.20
2023-05-25T11:34:46.935Z,75.00
2023-05-25T11:37:17.460Z,73.10
2023-05-25T11:39:51.662Z,73.10
2023-05-25T11:42:22.957Z,73.50
2023-05-25T11:44:50.421Z,73.00
2023-05-25T11:47:22.778Z,73.40
2023-05-25T11:49:50.037Z,73.00
2023-05-25T11:52:19.146Z,74.00
2023-05-25T11:54:46.819Z,73.30
2023-05-25T11:57:20.620Z,73.50
2023-05-25T11:59:50.260Z,73.90
2023-05-25T12:02:17.641Z,71.20
2023-05-25T12:04:54.374Z,72.70
2023-05-25T12:07:21.491Z,72.80
2023-05-25T12:09:48.404Z,69.30
2023-05-25T12:12:15.790Z,70.20
2023-05-25T12:14:51.949Z,69.90
2023-05-25T12:17:21.695Z,70.00
2023-05-25T12:19:49.030Z,69.80
2023-05-25T12:22:16.517Z,70.40
2023-05-25T12:24:43.597Z,71.00
2023-05-25T12:27:21.101Z,71.40
2023-05-25T12:29:48.634Z,71.30
2023-05-25T12:32:16.031Z,71.60
2023-05-25T12:34:43.586Z,73.60
2023-05-25T12:37:22.974Z,71.90
2023-05-25T12:39:50.739Z,71.70
2023-05-25T12:42:18.349Z,71.40
2023-05-25T12:44:46.760Z,70.90
2023-05-25T12:47:23.128Z,69.80
2023-05-25T12:49:52.142Z,69.00
2023-05-25T12:52:33.184Z,69.60
2023-05-25T12:55:19.309Z,67.50
2023-05-25T12:57:55.706Z,69.90
2023-05-25T13:00:34.527Z,69.50
2023-05-25T13:03:02.374Z,70.30
2023-05-25T13:05:34.127Z,69.70
2023-05-25T13:08:03.063Z,66.80
2023-05-25T13:10:31.044Z,68.80
2023-05-25T13:12:59.366Z,67.90
2023-05-25T13:15:27.270Z,65.70
2023-05-25T13:17:54.930Z,66.90
2023-05-25T13:20:23.602Z,68.00
2023-05-25T13:22:52.482Z,68.20
2023-05-25T13:25:21.932Z,68.60
2023-05-25T13:27:51.402Z,68.20
2023-05-25T13:30:21.025Z,66.80
2023-05-25T13:32:50.421Z,67.30
2023-05-25T13:35:23.225Z,67.10
2023-05-25T13:37:51.397Z,67.30
2023-05-25T13:40:19.165Z,65.70
2023-05-25T13:42:46.268Z,67.00
2023-05-25T13:45:13.963Z,67.90
2023-05-25T13:47:43.429Z,68.00
2023-05-25T13:50:11.680Z,66.30
2023-05-25T13:52:38.746Z,65.80
2023-05-25T13:55:06.291Z,66.40
2023-05-25T13:57:33.332Z,67.60
2023-05-25T14:00:00.272Z,68.20
2023-05-25T14:02:27.305Z,69.10
2023-05-25T14:04:54.541Z,68.10
2023-05-25T14:07:21.494Z,67.40
2023-05-25T14:09:48.416Z,68.90
2023-05-25T14:12:15.828Z,68.70
2023-05-25T14:14:42.736Z,67.80
2023-05-25T14:17:09.727Z,68.60
2023-05-25T14:19:36.661Z,66.40
2023-05-25T14:22:13.331Z,67.10
2023-05-25T14:24:42.245Z,66.90
2023-05-25T14:27:09.581Z,67.40
2023-05-25T14:29:36.977Z,67.00
2023-05-25T14:32:04.556Z,67.30
2023-05-25T14:34:31.540Z,67.80
2023-05-25T14:36:58.422Z,66.60
2023-05-25T14:39:26.061Z,66.40
2023-05-25T14:41:52.981Z,65.20
2023-05-25T14:44:20.004Z,66.00
2023-05-25T14:46:47.225Z,66.00
2023-05-25T14:49:14.206Z,65.70
2023-05-25T14:51:41.090Z,66.30
2023-05-25T14:54:08.148Z,65.70
2023-05-25T14:56:35.521Z,64.80
2023-05-25T14:59:02.517Z,63.40
2023-05-25T15:01:29.881Z,64.70
2023-05-25T15:03:57.317Z,65.40
2023-05-25T15:06:24.559Z,65.50
2023-05-25T15:08:52.095Z,65.60
2023-05-25T15:11:19.048Z,65.20
2023-05-25T15:13:46.412Z,66.00
2023-05-25T15:16:14.216Z,66.10
2023-05-25T15:18:41.401Z,65.90
2023-05-25T15:21:09.069Z,65.90
2023-05-25T15:23:36.717Z,65.90
2023-05-25T15:26:07.778Z,65.90
2023-05-25T15:28:34.971Z,66.60
2023-05-25T15:31:03.368Z,66.80
2023-05-25T15:33:47.886Z,66.00
2023-05-25T15:36:18.710Z,65.80
2023-05-25T15:38:49.099Z,66.30
2023-05-25T15:41:17.488Z,65.50
2023-05-25T15:43:54.741Z,65.40
2023-05-25T15:46:22.019Z,65.80
2023-05-25T15:48:49.060Z,66.00
2023-05-25T15:51:16.168Z,65.40
2023-05-25T15:53:43.081Z,66.30
2023-05-25T15:56:10.084Z,66.70
2023-05-25T15:58:37.020Z,65.60
2023-05-25T16:01:04.425Z,64.80
2023-05-25T16:03:31.375Z,65.40
2023-05-25T16:05:58.494Z,65.00
2023-05-25T16:08:25.348Z,65.00
2023-05-25T16:10:52.341Z,65.40
2023-05-25T16:13:19.535Z,65.00
2023-05-25T16:15:46.745Z,65.40
2023-05-25T16:18:16.601Z,66.40
2023-05-25T16:20:44.169Z,66.90
2023-05-25T16:23:11.268Z,67.10
2023-05-25T16:25:38.233Z,67.70
2023-05-25T16:28:05.276Z,67.60
2023-05-25T16:30:34.442Z,66.80
2023-05-25T16:33:01.306Z,67.00
2023-05-25T16:35:28.275Z,67.80
2023-05-25T16:37:55.146Z,68.40
2023-05-25T16:40:22.056Z,69.00
2023-05-25T16:42:48.968Z,69.40
2023-05-25T16:45:16.112Z,69.90
2023-05-25T16:47:43.065Z,70.70
2023-05-25T16:50:10.526Z,71.30
2023-05-25T16:52:37.454Z,71.70
2023-05-25T16:55:04.881Z,72.20
2023-05-25T16:57:31.810Z,72.30
2023-05-25T16:59:58.758Z,72.50
2023-05-25T17:02:26.160Z,72.80
2023-05-25T17:04:53.241Z,73.50
2023-05-25T17:07:20.189Z,74.30
2023-05-25T17:09:47.209Z,74.60
2023-05-25T17:12:14.184Z,74.50
2023-05-25T17:14:41.152Z,74.60
2023-05-25T17:17:08.052Z,74.50
2023-05-25T17:19:35.111Z,74.30
2023-05-25T17:22:02.056Z,74.50
2023-05-25T17:24:29.073Z,74.80
2023-05-25T17:26:56.165Z,75.30
2023-05-25T17:29:23.205Z,76.50
2023-05-25T17:31:50.140Z,76.30
2023-05-25T17:34:17.306Z,76.70
2023-05-25T17:36:44.241Z,77.20
2023-05-25T17:39:11.209Z,77.60
2023-05-25T17:41:38.284Z,77.70
2023-05-25T17:44:05.218Z,78.00
2023-05-25T17:46:32.209Z,78.30
2023-05-25T17:48:59.930Z,78.50
2023-05-25T17:51:26.830Z,78.90
2023-05-25T17:53:53.809Z,79.10
2023-05-25T17:56:21.786Z,79.30
2023-05-25T17:58:48.874Z,79.50
2023-05-25T18:01:16.177Z,79.60
2023-05-25T18:03:43.456Z,79.60
2023-05-25T18:06:10.840Z,79.80
2023-05-25T18:08:37.850Z,80.30
2023-05-25T18:11:05.610Z,80.70
2023-05-25T18:13:32.595Z,81.10
2023-05-25T18:15:59.737Z,81.40
2023-05-25T18:18:27.032Z,81.50
2023-05-25T18:20:53.966Z,81.80
2023-05-25T18:23:22.178Z,82.10
2023-05-25T18:25:49.184Z,82.40
2023-05-25T18:28:16.181Z,82.80
2023-05-25T18:30:43.301Z,83.40
2023-05-25T18:33:10.993Z,84.00
2023-05-25T18:35:38.281Z,84.50
2023-05-25T18:38:06.759Z,85.00
2023-05-25T18:40:34.092Z,85.40
2023-05-25T18:43:01.157Z,85.70
2023-05-25T18:45:28.063Z,86.00
2023-05-25T18:47:55.453Z,86.40
2023-05-25T18:50:22.387Z,87.50
2023-05-25T18:52:51.276Z,87.30
2023-05-25T18:55:19.238Z,87.70
2023-05-25T18:57:46.753Z,88.00
2023-05-25T19:00:14.506Z,88.40
2023-05-25T19:02:41.820Z,88.80
2023-05-25T19:05:11.629Z,89.20
2023-05-25T19:07:51.154Z,89.60
2023-05-25T19:10:25.459Z,90.00
2023-05-25T19:12:52.617Z,90.10
2023-05-25T19:15:19.799Z,90.30
2023-05-25T19:17:47.209Z,90.50
2023-05-25T19:20:14.742Z,90.70
2023-05-25T19:22:41.968Z,90.90
2023-05-25T19:25:09.168Z,91.10
2023-05-25T19:27:36.590Z,91.50
2023-05-25T19:30:04.027Z,91.30
2023-05-25T19:32:31.148Z,91.40
2023-05-25T19:34:58.316Z,91.50
2023-05-25T19:37:25.922Z,91.60
2023-05-25T19:39:52.850Z,91.70
2023-05-25T19:42:19.813Z,91.80
2023-05-25T19:44:46.980Z,91.80
2023-05-25T19:47:13.949Z,91.90
2023-05-25T19:49:41.028Z,91.90
2023-05-25T19:52:07.994Z,92.00
2023-05-25T19:54:35.269Z,92.10
2023-05-25T19:57:02.989Z,92.10
2023-05-25T19:59:31.470Z,92.10
2023-05-25T20:01:58.822Z,92.10
2023-05-25T20:04:25.889Z,92.20
2023-05-25T20:06:53.761Z,92.20
2023-05-25T20:09:29.745Z,92.30
2023-05-25T20:12:00.123Z,92.40
2023-05-25T20:14:27.092Z,92.40
2023-05-25T20:16:57.104Z,92.40
2023-05-25T20:19:23.999Z,92.40
2023-05-25T20:21:51.665Z,92.40
2023-05-25T20:24:18.714Z,92.50
2023-05-25T20:26:45.851Z,92.50
2023-05-25T20:29:12.785Z,92.50
2023-05-25T20:31:40.562Z,92.60
2023-05-25T20:34:07.563Z,92.60
2023-05-25T20:36:34.608Z,92.70
2023-05-25T20:39:03.007Z,92.80
2023-05-25T20:41:29.982Z,92.80
2023-05-25T20:43:56.963Z,92.80
2023-05-25T20:46:24.052Z,92.90
2023-05-25T20:48:51.987Z,92.90
2023-05-25T20:51:19.240Z,92.90
2023-05-25T20:53:46.222Z,93.00
2023-05-25T20:56:13.146Z,93.00
2023-05-25T20:58:40.959Z,93.00
2023-05-25T21:01:08.331Z,93.00
2023-05-25T21:03:35.502Z,93.00
2023-05-25T21:06:02.647Z,93.00
2023-05-25T21:08:29.656Z,93.00
2023-05-25T21:10:56.991Z,93.00
2023-05-25T21:13:23.873Z,93.00
2023-05-25T21:15:50.926Z,92.90
2023-05-25T21:18:17.879Z,92.90
2023-05-25T21:20:44.903Z,93.00
2023-05-25T21:23:11.868Z,93.10
2023-05-25T21:25:38.796Z,93.10
2023-05-25T21:28:06.813Z,93.10
2023-05-25T21:30:34.045Z,93.00
2023-05-25T21:33:00.943Z,93.00
2023-05-25T21:35:27.949Z,93.00
2023-05-25T21:37:55.098Z,93.00
2023-05-25T21:40:22.103Z,93.00
2023-05-25T21:42:51.078Z,93.00
2023-05-25T21:45:18.491Z,92.90
2023-05-25T21:47:45.457Z,92.90
2023-05-25T21:50:12.518Z,92.90
2023-05-25T21:52:39.747Z,93.00
2023-05-25T21:55:07.071Z,93.00
2023-05-25T21:57:33.961Z,93.00
2023-05-25T22:00:01.069Z,93.00
2023-05-25T22:02:28.061Z,92.90
2023-05-25T22:04:55.088Z,92.80
2023-05-25T22:07:22.117Z,92.80
2023-05-25T22:09:49.116Z,92.90
2023-05-25T22:12:16.077Z,93.00
2023-05-25T22:14:43.158Z,93.00
2023-05-25T22:17:10.405Z,92.80
2023-05-25T22:19:37.555Z,92.80
2023-05-25T22:22:04.936Z,92.70
2023-05-25T22:24:31.977Z,92.60
2023-05-25T22:26:58.867Z,92.70
2023-05-25T22:29:26.158Z,92.80
2023-05-25T22:31:53.109Z,92.90
2023-05-25T22:34:20.812Z,92.90
2023-05-25T22:36:47.808Z,92.80
2023-05-25T22:39:14.822Z,92.80
2023-05-25T22:41:41.780Z,92.90
2023-05-25T22:44:08.772Z,92.90
2023-05-25T22:46:35.982Z,92.80
2023-05-25T22:49:03.017Z,92.90
2023-05-25T22:51:30.064Z,92.90
2023-05-25T22:53:57.077Z,92.90
2023-05-25T22:56:24.133Z,93.00
2023-05-25T22:58:51.155Z,93.10
2023-05-25T23:01:18.140Z,93.10
2023-05-25T23:03:45.264Z,93.10
2023-05-25T23:06:12.307Z,93.10
2023-05-25T23:08:39.478Z,93.20
2023-05-25T23:11:06.483Z,93.30
2023-05-25T23:13:33.549Z,93.40
2023-05-25T23:16:00.505Z,93.40
2023-05-25T23:18:27.531Z,93.40
2023-05-25T23:20:54.530Z,93.30
2023-05-25T23:23:21.535Z,93.30
2023-05-25T23:25:48.479Z,93.20
2023-05-25T23:28:15.504Z,93.10
2023-05-25T23:30:42.464Z,93.10
2023-05-25T23:33:10.474Z,93.00
2023-05-25T23:35:37.596Z,93.10
2023-05-25T23:38:05.625Z,93.10
2023-05-25T23:40:32.602Z,93.20
2023-05-25T23:42:59.661Z,93.20
2023-05-25T23:45:27.272Z,93.20
2023-05-25T23:47:54.510Z,93.20
2023-05-25T23:50:21.845Z,93.10
2023-05-25T23:52:48.810Z,93.10
2023-05-25T23:55:15.738Z,93.20
2023-05-25T23:57:42.752Z,93.20
